Rowena, Oregon
Current Conditions -  °F | °C
As of 3:53 AM on Friday 19 Dec 2014 (Local Time) from KDLS Reporting Station
Haze Haze  
Wind Chill: 39°   Ceiling: 6500
Heat Index: 39°   Visibility: 4mi
Dew Point: 38°   Wind: 0mph
Humidity: 96%   Direction: NA
Pressure: 29.92"   Gusts: NA
Location:  45.5517°N, 121.219°W
Report Text: KDLS 191153Z AUTO 00000KT 4SM BR BKN065 OVC080 04/03 A2992 RMK AO2 SLP135 60003 70006 T00390033 10050 20039 53003
Loading
Personal Weather Stations






























Interactive Weather Map New forecast layout! Learn more

10-Day Weather Forecast

Advertisements
Track Severe Weather on mobile